sensor_id;sensor_type;location;lat;lon;timestamp;temperature;humidity
56298;DHT22;42208;6.376;-10.782;2023-02-01T00:01:07;27.10;99.90
56298;DHT22;42208;6.376;-10.782;2023-02-01T00:03:36;27.10;99.90
56298;DHT22;42208;6.376;-10.782;2023-02-01T00:06:04;27.20;99.90
56298;DHT22;42208;6.376;-10.782;2023-02-01T00:08:33;27.20;99.90
56298;DHT22;42208;6.376;-10.782;2023-02-01T00:11:06;27.20;99.90
56298;DHT22;42208;6.376;-10.782;2023-02-01T00:13:37;27.20;99.90
56298;DHT22;42208;6.376;-10.782;2023-02-01T00:16:12;27.20;99.90
56298;DHT22;42208;6.376;-10.782;2023-02-01T00:18:41;27.10;99.90
56298;DHT22;42208;6.376;-10.782;2023-02-01T00:21:14;27.20;99.90
56298;DHT22;42208;6.376;-10.782;2023-02-01T00:23:43;27.10;99.90
56298;DHT22;42208;6.376;-10.782;2023-02-01T00:26:20;27.10;99.90
56298;DHT22;42208;6.376;-10.782;2023-02-01T00:28:52;27.10;99.90
56298;DHT22;42208;6.376;-10.782;2023-02-01T00:31:22;27.10;99.90
56298;DHT22;42208;6.376;-10.782;2023-02-01T00:33:50;27.10;99.90
56298;DHT22;42208;6.376;-10.782;2023-02-01T00:36:18;27.10;99.90
56298;DHT22;42208;6.376;-10.782;2023-02-01T00:38:47;27.10;99.90
56298;DHT22;42208;6.376;-10.782;2023-02-01T00:41:20;27.10;99.90
56298;DHT22;42208;6.376;-10.782;2023-02-01T00:43:51;27.10;99.90
56298;DHT22;42208;6.376;-10.782;2023-02-01T00:46:22;27.10;99.90
56298;DHT22;42208;6.376;-10.782;2023-02-01T00:48:51;27.00;99.90
56298;DHT22;42208;6.376;-10.782;2023-02-01T00:51:21;27.10;99.90
56298;DHT22;42208;6.376;-10.782;2023-02-01T00:53:50;27.00;99.90
56298;DHT22;42208;6.376;-10.782;2023-02-01T00:56:19;27.00;99.90
56298;DHT22;42208;6.376;-10.782;2023-02-01T00:58:47;27.10;99.90
56298;DHT22;42208;6.376;-10.782;2023-02-01T01:01:17;27.00;99.90
56298;DHT22;42208;6.376;-10.782;2023-02-01T01:03:48;27.00;99.90
56298;DHT22;42208;6.376;-10.782;2023-02-01T01:06:21;27.00;99.90
56298;DHT22;42208;6.376;-10.782;2023-02-01T01:08:52;27.00;99.90
56298;DHT22;42208;6.376;-10.782;2023-02-01T01:11:23;27.00;99.90
56298;DHT22;42208;6.376;-10.782;2023-02-01T01:13:53;26.90;99.90
56298;DHT22;42208;6.376;-10.782;2023-02-01T01:16:23;26.90;99.90
56298;DHT22;42208;6.376;-10.782;2023-02-01T01:18:53;26.90;99.90
56298;DHT22;42208;6.376;-10.782;2023-02-01T01:21:21;26.90;99.90
56298;DHT22;42208;6.376;-10.782;2023-02-01T01:23:51;26.90;99.90
56298;DHT22;42208;6.376;-10.782;2023-02-01T01:26:24;26.90;99.90
56298;DHT22;42208;6.376;-10.782;2023-02-01T01:28:58;26.80;99.90
56298;DHT22;42208;6.376;-10.782;2023-02-01T01:31:28;26.80;99.90
56298;DHT22;42208;6.376;-10.782;2023-02-01T01:33:58;26.80;99.90
56298;DHT22;42208;6.376;-10.782;2023-02-01T01:36:28;26.70;99.90
56298;DHT22;42208;6.376;-10.782;2023-02-01T01:38:57;26.70;99.90
56298;DHT22;42208;6.376;-10.782;2023-02-01T01:41:29;26.70;99.90
56298;DHT22;42208;6.376;-10.782;2023-02-01T01:44:05;26.70;99.90
56298;DHT22;42208;6.376;-10.782;2023-02-01T01:46:36;26.60;99.90
56298;DHT22;42208;6.376;-10.782;2023-02-01T01:51:54;26.60;99.90
56298;DHT22;42208;6.376;-10.782;2023-02-01T01:54:37;26.60;99.90
56298;DHT22;42208;6.376;-10.782;2023-02-01T01:57:10;26.50;99.90
56298;DHT22;42208;6.376;-10.782;2023-02-01T01:59:45;26.50;99.90
56298;DHT22;42208;6.376;-10.782;2023-02-01T02:02:15;26.50;99.90
56298;DHT22;42208;6.376;-10.782;2023-02-01T02:04:46;26.40;99.90
56298;DHT22;42208;6.376;-10.782;2023-02-01T02:07:22;26.50;99.90
56298;DHT22;42208;6.376;-10.782;2023-02-01T02:09:51;26.40;99.90
56298;DHT22;42208;6.376;-10.782;2023-02-01T02:12:28;26.40;99.90
56298;DHT22;42208;6.376;-10.782;2023-02-01T02:14:56;26.40;99.90
56298;DHT22;42208;6.376;-10.782;2023-02-01T02:17:40;26.40;99.90
56298;DHT22;42208;6.376;-10.782;2023-02-01T02:20:51;26.30;99.90
56298;DHT22;42208;6.376;-10.782;2023-02-01T02:23:41;26.30;99.90
56298;DHT22;42208;6.376;-10.782;2023-02-01T02:26:38;26.30;99.90
56298;DHT22;42208;6.376;-10.782;2023-02-01T02:41:00;26.20;99.90
56298;DHT22;42208;6.376;-10.782;2023-02-01T02:43:54;26.20;99.90
56298;DHT22;42208;6.376;-10.782;2023-02-01T02:46:28;26.20;99.90
56298;DHT22;42208;6.376;-10.782;2023-02-01T02:49:11;26.10;99.90
56298;DHT22;42208;6.376;-10.782;2023-02-01T02:51:48;26.10;99.90
56298;DHT22;42208;6.376;-10.782;2023-02-01T02:54:33;26.10;99.90
56298;DHT22;42208;6.376;-10.782;2023-02-01T02:57:06;26.20;99.90
56298;DHT22;42208;6.376;-10.782;2023-02-01T02:59:38;26.10;99.90
56298;DHT22;42208;6.376;-10.782;2023-02-01T03:02:07;26.10;99.90
56298;DHT22;42208;6.376;-10.782;2023-02-01T03:04:37;26.10;99.90
56298;DHT22;42208;6.376;-10.782;2023-02-01T03:16:10;26.00;99.90
56298;DHT22;42208;6.376;-10.782;2023-02-01T03:18:49;26.00;99.90
56298;DHT22;42208;6.376;-10.782;2023-02-01T03:21:31;26.10;99.90
56298;DHT22;42208;6.376;-10.782;2023-02-01T03:27:21;26.00;99.90
56298;DHT22;42208;6.376;-10.782;2023-02-01T03:32:30;26.00;99.90
56298;DHT22;42208;6.376;-10.782;2023-02-01T03:34:59;26.00;99.90
56298;DHT22;42208;6.376;-10.782;2023-02-01T03:37:28;26.00;99.90
56298;DHT22;42208;6.376;-10.782;2023-02-01T03:40:08;26.00;99.90
56298;DHT22;42208;6.376;-10.782;2023-02-01T03:42:47;25.90;99.90
56298;DHT22;42208;6.376;-10.782;2023-02-01T03:45:27;25.90;99.90
56298;DHT22;42208;6.376;-10.782;2023-02-01T03:47:59;25.90;99.90
56298;DHT22;42208;6.376;-10.782;2023-02-01T03:50:31;25.90;99.90
56298;DHT22;42208;6.376;-10.782;2023-02-01T03:53:09;25.90;99.90
56298;DHT22;42208;6.376;-10.782;2023-02-01T03:55:39;25.90;99.90
56298;DHT22;42208;6.376;-10.782;2023-02-01T03:58:19;25.80;99.90
56298;DHT22;42208;6.376;-10.782;2023-02-01T04:00:54;25.70;99.90
56298;DHT22;42208;6.376;-10.782;2023-02-01T04:03:23;25.80;99.90
56298;DHT22;42208;6.376;-10.782;2023-02-01T04:05:55;25.80;99.90
56298;DHT22;42208;6.376;-10.782;2023-02-01T04:08:27;25.80;99.90
56298;DHT22;42208;6.376;-10.782;2023-02-01T04:10:55;25.70;99.90
56298;DHT22;42208;6.376;-10.782;2023-02-01T04:13:23;25.70;99.90
56298;DHT22;42208;6.376;-10.782;2023-02-01T04:15:51;25.70;99.90
56298;DHT22;42208;6.376;-10.782;2023-02-01T04:18:20;25.70;99.90
56298;DHT22;42208;6.376;-10.782;2023-02-01T04:20:48;25.70;99.90
56298;DHT22;42208;6.376;-10.782;2023-02-01T04:23:16;25.70;99.90
56298;DHT22;42208;6.376;-10.782;2023-02-01T04:25:44;25.70;99.90
56298;DHT22;42208;6.376;-10.782;2023-02-01T04:28:13;25.70;99.90
56298;DHT22;42208;6.376;-10.782;2023-02-01T04:30:41;25.70;99.90
56298;DHT22;42208;6.376;-10.782;2023-02-01T04:33:09;25.70;99.90
56298;DHT22;42208;6.376;-10.782;2023-02-01T04:35:38;25.70;99.90
56298;DHT22;42208;6.376;-10.782;2023-02-01T04:38:06;25.70;99.90
56298;DHT22;42208;6.376;-10.782;2023-02-01T04:40:34;25.70;99.90
56298;DHT22;42208;6.376;-10.782;2023-02-01T04:43:02;25.70;99.90
56298;DHT22;42208;6.376;-10.782;2023-02-01T04:45:31;25.60;99.90
56298;DHT22;42208;6.376;-10.782;2023-02-01T04:47:59;25.60;99.90
56298;DHT22;42208;6.376;-10.782;2023-02-01T04:50:27;25.60;99.90
56298;DHT22;42208;6.376;-10.782;2023-02-01T04:52:56;25.60;99.90
56298;DHT22;42208;6.376;-10.782;2023-02-01T04:55:24;25.60;99.90
56298;DHT22;42208;6.376;-10.782;2023-02-01T04:57:52;25.60;99.90
56298;DHT22;42208;6.376;-10.782;2023-02-01T05:00:21;25.50;99.90
56298;DHT22;42208;6.376;-10.782;2023-02-01T05:02:49;25.50;99.90
56298;DHT22;42208;6.376;-10.782;2023-02-01T05:05:18;25.50;99.90
56298;DHT22;42208;6.376;-10.782;2023-02-01T05:07:46;25.50;99.90
56298;DHT22;42208;6.376;-10.782;2023-02-01T05:10:15;25.50;99.90
56298;DHT22;42208;6.376;-10.782;2023-02-01T05:12:44;25.50;99.90
56298;DHT22;42208;6.376;-10.782;2023-02-01T05:15:13;25.50;99.90
56298;DHT22;42208;6.376;-10.782;2023-02-01T05:17:41;25.50;99.90
56298;DHT22;42208;6.376;-10.782;2023-02-01T05:20:10;25.40;99.90
56298;DHT22;42208;6.376;-10.782;2023-02-01T05:22:38;25.40;99.90
56298;DHT22;42208;6.376;-10.782;2023-02-01T05:25:07;25.40;99.90
56298;DHT22;42208;6.376;-10.782;2023-02-01T05:27:35;25.40;99.90
56298;DHT22;42208;6.376;-10.782;2023-02-01T05:30:04;25.40;99.90
56298;DHT22;42208;6.376;-10.782;2023-02-01T05:32:33;25.30;99.90
56298;DHT22;42208;6.376;-10.782;2023-02-01T05:35:01;25.30;99.90
56298;DHT22;42208;6.376;-10.782;2023-02-01T05:37:29;25.30;99.90
56298;DHT22;42208;6.376;-10.782;2023-02-01T05:39:58;25.30;99.90
56298;DHT22;42208;6.376;-10.782;2023-02-01T05:42:26;25.30;99.90
56298;DHT22;42208;6.376;-10.782;2023-02-01T05:44:54;25.40;99.90
56298;DHT22;42208;6.376;-10.782;2023-02-01T05:47:22;25.40;99.90
56298;DHT22;42208;6.376;-10.782;2023-02-01T05:49:51;25.40;99.90
56298;DHT22;42208;6.376;-10.782;2023-02-01T05:52:19;25.50;99.90
56298;DHT22;42208;6.376;-10.782;2023-02-01T05:54:47;25.40;99.90
56298;DHT22;42208;6.376;-10.782;2023-02-01T05:57:15;25.40;99.90
56298;DHT22;42208;6.376;-10.782;2023-02-01T05:59:44;25.50;99.90
56298;DHT22;42208;6.376;-10.782;2023-02-01T06:02:12;25.40;99.90
56298;DHT22;42208;6.376;-10.782;2023-02-01T06:04:41;25.40;99.90
56298;DHT22;42208;6.376;-10.782;2023-02-01T06:07:09;25.50;99.90
56298;DHT22;42208;6.376;-10.782;2023-02-01T06:09:41;25.60;99.90
56298;DHT22;42208;6.376;-10.782;2023-02-01T06:12:09;25.60;99.90
56298;DHT22;42208;6.376;-10.782;2023-02-01T06:14:38;25.60;99.90
56298;DHT22;42208;6.376;-10.782;2023-02-01T06:17:09;25.60;99.90
56298;DHT22;42208;6.376;-10.782;2023-02-01T06:19:37;25.70;99.90
56298;DHT22;42208;6.376;-10.782;2023-02-01T06:22:06;25.60;99.90
56298;DHT22;42208;6.376;-10.782;2023-02-01T06:24:34;25.70;99.90
56298;DHT22;42208;6.376;-10.782;2023-02-01T06:27:02;25.60;99.90
56298;DHT22;42208;6.376;-10.782;2023-02-01T06:29:30;25.60;99.90
56298;DHT22;42208;6.376;-10.782;2023-02-01T06:31:59;25.60;99.90
56298;DHT22;42208;6.376;-10.782;2023-02-01T06:34:27;25.60;99.90
56298;DHT22;42208;6.376;-10.782;2023-02-01T06:36:56;25.50;99.90
56298;DHT22;42208;6.376;-10.782;2023-02-01T06:39:24;25.50;99.90
56298;DHT22;42208;6.376;-10.782;2023-02-01T06:41:52;25.50;99.90
56298;DHT22;42208;6.376;-10.782;2023-02-01T06:44:21;25.50;99.90
56298;DHT22;42208;6.376;-10.782;2023-02-01T06:46:49;25.60;99.90
56298;DHT22;42208;6.376;-10.782;2023-02-01T06:49:17;25.60;99.90
56298;DHT22;42208;6.376;-10.782;2023-02-01T06:51:45;25.60;99.90
56298;DHT22;42208;6.376;-10.782;2023-02-01T06:54:14;25.60;99.90
56298;DHT22;42208;6.376;-10.782;2023-02-01T06:56:42;25.70;99.90
56298;DHT22;42208;6.376;-10.782;2023-02-01T06:59:11;25.60;99.90
56298;DHT22;42208;6.376;-10.782;2023-02-01T07:01:43;25.60;99.90
56298;DHT22;42208;6.376;-10.782;2023-02-01T07:04:11;25.60;99.90
56298;DHT22;42208;6.376;-10.782;2023-02-01T07:06:40;25.60;99.90
56298;DHT22;42208;6.376;-10.782;2023-02-01T07:09:09;25.60;99.90
56298;DHT22;42208;6.376;-10.782;2023-02-01T07:11:37;25.60;99.90
56298;DHT22;42208;6.376;-10.782;2023-02-01T07:14:05;25.60;99.90
56298;DHT22;42208;6.376;-10.782;2023-02-01T07:16:34;25.60;99.90
56298;DHT22;42208;6.376;-10.782;2023-02-01T07:19:03;25.60;99.90
56298;DHT22;42208;6.376;-10.782;2023-02-01T07:21:32;25.60;99.90
56298;DHT22;42208;6.376;-10.782;2023-02-01T07:24:00;25.60;99.90
56298;DHT22;42208;6.376;-10.782;2023-02-01T07:26:29;25.60;99.90
56298;DHT22;42208;6.376;-10.782;2023-02-01T07:28:57;25.70;99.90
56298;DHT22;42208;6.376;-10.782;2023-02-01T07:31:25;25.70;99.90
56298;DHT22;42208;6.376;-10.782;2023-02-01T07:33:54;25.70;99.90
56298;DHT22;42208;6.376;-10.782;2023-02-01T07:36:23;25.70;99.90
56298;DHT22;42208;6.376;-10.782;2023-02-01T07:38:51;25.70;99.90
56298;DHT22;42208;6.376;-10.782;2023-02-01T07:41:23;25.70;99.90
56298;DHT22;42208;6.376;-10.782;2023-02-01T07:43:54;25.80;99.90
56298;DHT22;42208;6.376;-10.782;2023-02-01T07:46:23;25.80;99.90
56298;DHT22;42208;6.376;-10.782;2023-02-01T07:48:51;25.90;99.90
56298;DHT22;42208;6.376;-10.782;2023-02-01T07:51:19;25.90;99.90
56298;DHT22;42208;6.376;-10.782;2023-02-01T07:53:47;25.90;99.90
56298;DHT22;42208;6.376;-10.782;2023-02-01T07:56:20;26.00;99.90
56298;DHT22;42208;6.376;-10.782;2023-02-01T07:58:50;26.00;99.90
56298;DHT22;42208;6.376;-10.782;2023-02-01T08:01:28;26.00;99.90
56298;DHT22;42208;6.376;-10.782;2023-02-01T08:03:59;26.10;99.90
56298;DHT22;42208;6.376;-10.782;2023-02-01T08:06:30;26.10;99.90
56298;DHT22;42208;6.376;-10.782;2023-02-01T08:08:59;26.10;99.90
56298;DHT22;42208;6.376;-10.782;2023-02-01T08:11:29;26.20;99.90
56298;DHT22;42208;6.376;-10.782;2023-02-01T08:13:58;26.20;99.90
56298;DHT22;42208;6.376;-10.782;2023-02-01T08:16:26;26.20;99.90
56298;DHT22;42208;6.376;-10.782;2023-02-01T08:18:55;26.30;99.90
56298;DHT22;42208;6.376;-10.782;2023-02-01T08:21:25;26.30;99.90
56298;DHT22;42208;6.376;-10.782;2023-02-01T08:23:54;26.30;99.90
56298;DHT22;42208;6.376;-10.782;2023-02-01T08:26:24;26.30;99.90
56298;DHT22;42208;6.376;-10.782;2023-02-01T08:28:55;26.40;99.90
56298;DHT22;42208;6.376;-10.782;2023-02-01T08:31:26;26.50;99.90
56298;DHT22;42208;6.376;-10.782;2023-02-01T08:33:57;26.50;99.90
56298;DHT22;42208;6.376;-10.782;2023-02-01T08:36:28;26.60;99.90
56298;DHT22;42208;6.376;-10.782;2023-02-01T08:38:57;26.60;99.90
56298;DHT22;42208;6.376;-10.782;2023-02-01T08:41:28;26.70;99.90
56298;DHT22;42208;6.376;-10.782;2023-02-01T08:43:57;26.70;99.90
56298;DHT22;42208;6.376;-10.782;2023-02-01T08:46:26;26.80;99.90
56298;DHT22;42208;6.376;-10.782;2023-02-01T08:48:55;26.80;99.90
56298;DHT22;42208;6.376;-10.782;2023-02-01T08:51:23;26.80;99.90
56298;DHT22;42208;6.376;-10.782;2023-02-01T08:53:52;26.90;99.90
56298;DHT22;42208;6.376;-10.782;2023-02-01T08:56:20;26.90;99.90
56298;DHT22;42208;6.376;-10.782;2023-02-01T08:58:48;26.90;99.90
56298;DHT22;42208;6.376;-10.782;2023-02-01T09:01:17;27.00;99.90
56298;DHT22;42208;6.376;-10.782;2023-02-01T09:03:46;27.10;99.90
56298;DHT22;42208;6.376;-10.782;2023-02-01T09:06:15;27.10;99.90
56298;DHT22;42208;6.376;-10.782;2023-02-01T09:08:44;27.20;99.90
56298;DHT22;42208;6.376;-10.782;2023-02-01T09:11:14;27.30;99.90
56298;DHT22;42208;6.376;-10.782;2023-02-01T09:13:43;27.30;99.90
56298;DHT22;42208;6.376;-10.782;2023-02-01T09:16:12;27.30;99.90
56298;DHT22;42208;6.376;-10.782;2023-02-01T09:18:46;27.40;99.90
56298;DHT22;42208;6.376;-10.782;2023-02-01T09:21:34;27.40;99.90
56298;DHT22;42208;6.376;-10.782;2023-02-01T09:24:03;27.50;99.90
56298;DHT22;42208;6.376;-10.782;2023-02-01T09:26:31;27.50;99.90
56298;DHT22;42208;6.376;-10.782;2023-02-01T09:29:00;27.60;99.90
56298;DHT22;42208;6.376;-10.782;2023-02-01T09:31:29;27.60;99.90
56298;DHT22;42208;6.376;-10.782;2023-02-01T09:33:58;27.60;99.90
56298;DHT22;42208;6.376;-10.782;2023-02-01T09:36:27;27.70;99.90
56298;DHT22;42208;6.376;-10.782;2023-02-01T09:38:58;27.70;99.90
56298;DHT22;42208;6.376;-10.782;2023-02-01T09:41:32;27.70;99.90
56298;DHT22;42208;6.376;-10.782;2023-02-01T09:46:59;27.70;99.90
56298;DHT22;42208;6.376;-10.782;2023-02-01T09:49:32;27.80;99.90
56298;DHT22;42208;6.376;-10.782;2023-02-01T09:52:04;27.90;99.90
56298;DHT22;42208;6.376;-10.782;2023-02-01T09:54:49;28.00;99.90
56298;DHT22;42208;6.376;-10.782;2023-02-01T09:57:25;28.10;99.90
56298;DHT22;42208;6.376;-10.782;2023-02-01T10:00:03;28.20;99.90
56298;DHT22;42208;6.376;-10.782;2023-02-01T10:02:39;28.30;99.90
56298;DHT22;42208;6.376;-10.782;2023-02-01T10:05:16;28.40;99.90
56298;DHT22;42208;6.376;-10.782;2023-02-01T10:08:01;28.30;99.90
56298;DHT22;42208;6.376;-10.782;2023-02-01T10:10:47;28.40;99.90
56298;DHT22;42208;6.376;-10.782;2023-02-01T10:14:30;28.60;99.90
56298;DHT22;42208;6.376;-10.782;2023-02-01T10:25:35;28.80;99.90
56298;DHT22;42208;6.376;-10.782;2023-02-01T10:28:04;28.70;99.90
56298;DHT22;42208;6.376;-10.782;2023-02-01T10:30:43;28.80;99.90
56298;DHT22;42208;6.376;-10.782;2023-02-01T10:34:09;28.70;99.90
56298;DHT22;42208;6.376;-10.782;2023-02-01T10:36:15;28.70;99.90
56298;DHT22;42208;6.376;-10.782;2023-02-01T10:38:44;28.80;99.90
56298;DHT22;42208;6.376;-10.782;2023-02-01T10:41:20;28.80;99.90
56298;DHT22;42208;6.376;-10.782;2023-02-01T10:43:53;28.90;99.90
56298;DHT22;42208;6.376;-10.782;2023-02-01T18:22:04;29.10;99.90
56298;DHT22;42208;6.376;-10.782;2023-02-01T18:24:33;29.00;99.90
56298;DHT22;42208;6.376;-10.782;2023-02-01T18:27:01;29.20;99.90
56298;DHT22;42208;6.376;-10.782;2023-02-01T18:29:29;29.20;99.90
56298;DHT22;42208;6.376;-10.782;2023-02-01T18:31:58;29.00;99.90
56298;DHT22;42208;6.376;-10.782;2023-02-01T18:34:26;28.90;99.90
56298;DHT22;42208;6.376;-10.782;2023-02-01T18:36:55;28.90;99.90
56298;DHT22;42208;6.376;-10.782;2023-02-01T18:39:23;28.70;99.90
56298;DHT22;42208;6.376;-10.782;2023-02-01T18:41:52;28.60;99.90
56298;DHT22;42208;6.376;-10.782;2023-02-01T18:44:20;28.50;99.90
56298;DHT22;42208;6.376;-10.782;2023-02-01T18:46:48;28.40;99.90
56298;DHT22;42208;6.376;-10.782;2023-02-01T18:49:17;28.50;99.90
56298;DHT22;42208;6.376;-10.782;2023-02-01T18:51:45;28.40;99.90
56298;DHT22;42208;6.376;-10.782;2023-02-01T18:54:14;28.30;99.90
56298;DHT22;42208;6.376;-10.782;2023-02-01T18:56:42;28.30;99.90
56298;DHT22;42208;6.376;-10.782;2023-02-01T18:59:10;28.30;99.90
56298;DHT22;42208;6.376;-10.782;2023-02-01T19:01:39;28.20;99.90
56298;DHT22;42208;6.376;-10.782;2023-02-01T19:04:11;28.20;99.90
56298;DHT22;42208;6.376;-10.782;2023-02-01T19:06:50;28.00;99.90
56298;DHT22;42208;6.376;-10.782;2023-02-01T19:09:19;28.00;99.90
56298;DHT22;42208;6.376;-10.782;2023-02-01T19:11:47;27.90;99.90
56298;DHT22;42208;6.376;-10.782;2023-02-01T19:14:15;27.80;99.90
56298;DHT22;42208;6.376;-10.782;2023-02-01T19:16:44;27.90;99.90
56298;DHT22;42208;6.376;-10.782;2023-02-01T19:19:13;28.00;99.90
56298;DHT22;42208;6.376;-10.782;2023-02-01T19:21:42;27.90;99.90
56298;DHT22;42208;6.376;-10.782;2023-02-01T19:24:10;27.80;99.90
56298;DHT22;42208;6.376;-10.782;2023-02-01T19:26:39;27.70;99.90
56298;DHT22;42208;6.376;-10.782;2023-02-01T19:29:09;27.80;99.90
56298;DHT22;42208;6.376;-10.782;2023-02-01T19:31:37;27.80;99.90
56298;DHT22;42208;6.376;-10.782;2023-02-01T19:34:07;27.80;99.90
56298;DHT22;42208;6.376;-10.782;2023-02-01T19:36:35;27.70;99.90
56298;DHT22;42208;6.376;-10.782;2023-02-01T19:39:04;27.70;99.90
56298;DHT22;42208;6.376;-10.782;2023-02-01T19:41:32;27.70;99.90
56298;DHT22;42208;6.376;-10.782;2023-02-01T19:44:00;27.70;99.90
56298;DHT22;42208;6.376;-10.782;2023-02-01T19:46:29;27.70;99.90
56298;DHT22;42208;6.376;-10.782;2023-02-01T19:48:57;27.70;99.90
56298;DHT22;42208;6.376;-10.782;2023-02-01T19:51:25;27.70;99.90
56298;DHT22;42208;6.376;-10.782;2023-02-01T19:53:54;27.60;99.90
56298;DHT22;42208;6.376;-10.782;2023-02-01T19:56:22;27.60;99.90
56298;DHT22;42208;6.376;-10.782;2023-02-01T19:58:51;27.70;99.90
56298;DHT22;42208;6.376;-10.782;2023-02-01T20:01:19;27.70;99.90
56298;DHT22;42208;6.376;-10.782;2023-02-01T20:03:48;27.70;99.90
56298;DHT22;42208;6.376;-10.782;2023-02-01T20:06:16;27.70;99.90
56298;DHT22;42208;6.376;-10.782;2023-02-01T20:08:47;27.70;99.90
56298;DHT22;42208;6.376;-10.782;2023-02-01T20:11:16;27.70;99.90
56298;DHT22;42208;6.376;-10.782;2023-02-01T20:13:44;27.60;99.90
56298;DHT22;42208;6.376;-10.782;2023-02-01T20:16:12;27.60;99.90
56298;DHT22;42208;6.376;-10.782;2023-02-01T20:18:41;27.60;99.90
56298;DHT22;42208;6.376;-10.782;2023-02-01T20:21:11;27.60;99.90
56298;DHT22;42208;6.376;-10.782;2023-02-01T20:23:39;27.60;99.90
56298;DHT22;42208;6.376;-10.782;2023-02-01T20:26:10;27.60;99.90
56298;DHT22;42208;6.376;-10.782;2023-02-01T20:28:38;27.50;99.90
56298;DHT22;42208;6.376;-10.782;2023-02-01T20:31:07;27.50;99.90
56298;DHT22;42208;6.376;-10.782;2023-02-01T20:33:36;27.50;99.90
56298;DHT22;42208;6.376;-10.782;2023-02-01T20:36:05;27.50;99.90
56298;DHT22;42208;6.376;-10.782;2023-02-01T20:38:33;27.50;99.90
56298;DHT22;42208;6.376;-10.782;2023-02-01T20:41:06;27.60;99.90
56298;DHT22;42208;6.376;-10.782;2023-02-01T20:43:35;27.60;99.90
56298;DHT22;42208;6.376;-10.782;2023-02-01T20:46:03;27.60;99.90
56298;DHT22;42208;6.376;-10.782;2023-02-01T20:48:32;27.60;99.90
56298;DHT22;42208;6.376;-10.782;2023-02-01T20:51:01;27.60;99.90
56298;DHT22;42208;6.376;-10.782;2023-02-01T20:53:29;27.60;99.90
56298;DHT22;42208;6.376;-10.782;2023-02-01T20:55:58;27.60;99.90
56298;DHT22;42208;6.376;-10.782;2023-02-01T20:58:27;27.60;99.90
56298;DHT22;42208;6.376;-10.782;2023-02-01T21:00:55;27.60;99.90
56298;DHT22;42208;6.376;-10.782;2023-02-01T21:03:24;27.60;99.90
56298;DHT22;42208;6.376;-10.782;2023-02-01T21:05:55;27.60;99.90
56298;DHT22;42208;6.376;-10.782;2023-02-01T21:08:26;27.60;99.90
56298;DHT22;42208;6.376;-10.782;2023-02-01T21:13:25;27.60;99.90
56298;DHT22;42208;6.376;-10.782;2023-02-01T21:15:54;27.50;99.90
56298;DHT22;42208;6.376;-10.782;2023-02-01T21:18:23;27.50;99.90
56298;DHT22;42208;6.376;-10.782;2023-02-01T21:20:51;27.50;99.90
56298;DHT22;42208;6.376;-10.782;2023-02-01T21:23:20;27.50;99.90
56298;DHT22;42208;6.376;-10.782;2023-02-01T21:25:48;27.50;99.90
56298;DHT22;42208;6.376;-10.782;2023-02-01T21:28:17;27.50;99.90
56298;DHT22;42208;6.376;-10.782;2023-02-01T21:30:45;27.50;99.90
56298;DHT22;42208;6.376;-10.782;2023-02-01T21:33:14;27.40;99.90
56298;DHT22;42208;6.376;-10.782;2023-02-01T21:35:42;27.40;99.90
56298;DHT22;42208;6.376;-10.782;2023-02-01T21:38:10;27.50;99.90
56298;DHT22;42208;6.376;-10.782;2023-02-01T21:40:38;27.50;99.90
56298;DHT22;42208;6.376;-10.782;2023-02-01T21:43:07;27.40;99.90
56298;DHT22;42208;6.376;-10.782;2023-02-01T21:45:35;27.50;99.90
56298;DHT22;42208;6.376;-10.782;2023-02-01T21:48:09;27.50;99.90
56298;DHT22;42208;6.376;-10.782;2023-02-01T21:50:37;27.40;99.90
56298;DHT22;42208;6.376;-10.782;2023-02-01T21:53:09;27.40;99.90
56298;DHT22;42208;6.376;-10.782;2023-02-01T21:55:37;27.40;99.90
56298;DHT22;42208;6.376;-10.782;2023-02-01T21:58:05;27.50;99.90
56298;DHT22;42208;6.376;-10.782;2023-02-01T22:00:33;27.50;99.90
56298;DHT22;42208;6.376;-10.782;2023-02-01T22:03:02;27.40;99.90
56298;DHT22;42208;6.376;-10.782;2023-02-01T22:05:30;27.40;99.90
56298;DHT22;42208;6.376;-10.782;2023-02-01T22:07:58;27.40;99.90
56298;DHT22;42208;6.376;-10.782;2023-02-01T22:10:27;27.40;99.90
56298;DHT22;42208;6.376;-10.782;2023-02-01T22:12:55;27.30;99.90
56298;DHT22;42208;6.376;-10.782;2023-02-01T22:15:23;27.40;99.90
56298;DHT22;42208;6.376;-10.782;2023-02-01T22:17:52;27.40;99.90
56298;DHT22;42208;6.376;-10.782;2023-02-01T22:20:20;27.40;99.90
56298;DHT22;42208;6.376;-10.782;2023-02-01T22:22:48;27.40;99.90
56298;DHT22;42208;6.376;-10.782;2023-02-01T22:25:17;27.40;99.90
56298;DHT22;42208;6.376;-10.782;2023-02-01T22:27:45;27.40;99.90
56298;DHT22;42208;6.376;-10.782;2023-02-01T22:30:33;27.40;99.90
56298;DHT22;42208;6.376;-10.782;2023-02-01T22:33:02;27.40;99.90
56298;DHT22;42208;6.376;-10.782;2023-02-01T22:35:30;27.40;99.90
56298;DHT22;42208;6.376;-10.782;2023-02-01T22:37:59;27.40;99.90
56298;DHT22;42208;6.376;-10.782;2023-02-01T22:40:27;27.40;99.90
56298;DHT22;42208;6.376;-10.782;2023-02-01T22:42:55;27.40;99.90
56298;DHT22;42208;6.376;-10.782;2023-02-01T22:45:23;27.40;99.90
56298;DHT22;42208;6.376;-10.782;2023-02-01T22:47:52;27.30;99.90
56298;DHT22;42208;6.376;-10.782;2023-02-01T22:50:20;27.30;99.90
56298;DHT22;42208;6.376;-10.782;2023-02-01T22:52:49;27.40;99.90
56298;DHT22;42208;6.376;-10.782;2023-02-01T22:55:17;27.30;99.90
56298;DHT22;42208;6.376;-10.782;2023-02-01T22:57:45;27.30;99.90
56298;DHT22;42208;6.376;-10.782;2023-02-01T23:00:13;27.30;99.90
56298;DHT22;42208;6.376;-10.782;2023-02-01T23:02:42;27.30;99.90
56298;DHT22;42208;6.376;-10.782;2023-02-01T23:05:11;27.20;99.90
56298;DHT22;42208;6.376;-10.782;2023-02-01T23:07:39;27.20;99.90
56298;DHT22;42208;6.376;-10.782;2023-02-01T23:10:08;27.20;99.90
56298;DHT22;42208;6.376;-10.782;2023-02-01T23:12:37;27.20;99.90
56298;DHT22;42208;6.376;-10.782;2023-02-01T23:15:05;27.30;99.90
56298;DHT22;42208;6.376;-10.782;2023-02-01T23:17:35;27.30;99.90
56298;DHT22;42208;6.376;-10.782;2023-02-01T23:20:06;27.30;99.90
56298;DHT22;42208;6.376;-10.782;2023-02-01T23:22:35;27.30;99.90
56298;DHT22;42208;6.376;-10.782;2023-02-01T23:25:03;27.30;99.90
56298;DHT22;42208;6.376;-10.782;2023-02-01T23:27:31;27.30;99.90
56298;DHT22;42208;6.376;-10.782;2023-02-01T23:30:00;27.20;99.90
56298;DHT22;42208;6.376;-10.782;2023-02-01T23:32:28;27.20;99.90
56298;DHT22;42208;6.376;-10.782;2023-02-01T23:34:56;27.20;99.90
56298;DHT22;42208;6.376;-10.782;2023-02-01T23:37:25;27.20;99.90
56298;DHT22;42208;6.376;-10.782;2023-02-01T23:39:53;27.20;99.90
56298;DHT22;42208;6.376;-10.782;2023-02-01T23:42:22;27.20;99.90
56298;DHT22;42208;6.376;-10.782;2023-02-01T23:44:50;27.20;99.90
56298;DHT22;42208;6.376;-10.782;2023-02-01T23:47:24;27.20;99.90
56298;DHT22;42208;6.376;-10.782;2023-02-01T23:49:52;27.20;99.90
56298;DHT22;42208;6.376;-10.782;2023-02-01T23:52:21;27.20;99.90
56298;DHT22;42208;6.376;-10.782;2023-02-01T23:54:49;27.20;99.90